createdAt,value
2023-01-13T00:00:41.503Z,18.45
2023-01-13T00:03:47.460Z,22.05
2023-01-13T00:06:54.470Z,20.62
2023-01-13T00:10:00.226Z,26.33
2023-01-13T00:13:06.791Z,20.02
2023-01-13T00:16:17.679Z,17.60
2023-01-13T00:19:23.731Z,20.27
2023-01-13T00:22:29.682Z,20.37
2023-01-13T00:25:35.219Z,23.85
2023-01-13T00:28:41.831Z,18.87
2023-01-13T00:31:47.395Z,20.77
2023-01-13T00:34:53.958Z,26.12
2023-01-13T00:37:59.908Z,20.02
2023-01-13T00:41:20.755Z,18.67
2023-01-13T00:44:26.248Z,27.55
2023-01-13T00:47:31.852Z,19.85
2023-01-13T00:50:37.741Z,23.60
2023-01-13T00:53:42.851Z,27.85
2023-01-13T00:56:49.276Z,23.75
2023-01-13T00:59:55.738Z,24.27
2023-01-13T01:03:01.606Z,24.20
2023-01-13T01:06:08.262Z,22.05
2023-01-13T01:09:14.710Z,21.40
2023-01-13T01:12:20.607Z,20.15
2023-01-13T01:15:26.341Z,27.62
2023-01-13T01:18:33.305Z,25.68
2023-01-13T01:21:40.461Z,22.22
2023-01-13T01:24:46.283Z,25.95
2023-01-13T01:27:52.570Z,25.02
2023-01-13T01:30:58.927Z,30.88
2023-01-13T01:34:05.032Z,31.80
2023-01-13T01:37:10.800Z,34.33
2023-01-13T01:40:16.969Z,31.70
2023-01-13T01:43:52.690Z,28.02
2023-01-13T01:46:52.167Z,32.48
2023-01-13T01:49:58.520Z,38.15
2023-01-13T01:53:10.752Z,38.53
2023-01-13T01:56:16.774Z,40.25
2023-01-13T01:59:22.762Z,35.33
2023-01-13T02:02:27.887Z,40.50
2023-01-13T02:05:34.276Z,39.45
2023-01-13T02:08:39.582Z,37.75
2023-01-13T02:12:04.904Z,39.27
2023-01-13T02:15:27.557Z,40.03
2023-01-13T02:18:53.105Z,37.30
2023-01-13T02:22:27.905Z,41.75
2023-01-13T02:29:46.483Z,38.78
2023-01-13T02:33:41.414Z,37.33
2023-01-13T02:37:07.158Z,42.33
2023-01-13T02:40:18.736Z,39.53
2023-01-13T02:44:08.078Z,43.08
2023-01-13T02:47:22.669Z,45.15
2023-01-13T02:50:37.504Z,40.10
2023-01-13T02:53:48.520Z,36.03
2023-01-13T02:56:58.361Z,37.55
2023-01-13T03:00:04.254Z,39.50
2023-01-13T03:03:10.608Z,44.25
2023-01-13T03:06:38.024Z,45.70
2023-01-13T03:10:01.773Z,42.05
2023-01-13T03:13:29.690Z,40.17
2023-01-13T03:16:57.214Z,40.55
2023-01-13T03:20:19.844Z,44.38
2023-01-13T03:23:34.105Z,37.33
2023-01-13T03:27:04.077Z,37.90
2023-01-13T03:30:15.994Z,34.33
2023-01-13T03:33:38.540Z,40.10
2023-01-13T03:36:45.115Z,32.30
2023-01-13T03:39:54.418Z,34.18
2023-01-13T03:43:19.864Z,38.05
2023-01-13T03:46:30.077Z,34.18
2023-01-13T03:49:37.901Z,31.00
2023-01-13T03:52:47.107Z,35.23
2023-01-13T03:55:59.085Z,33.80
2023-01-13T03:59:05.440Z,31.50
2023-01-13T04:02:18.598Z,34.20
2023-01-13T04:05:25.259Z,30.82
2023-01-13T04:08:40.502Z,38.15
2023-01-13T04:11:58.445Z,28.38
2023-01-13T04:15:03.899Z,27.93
2023-01-13T04:18:32.514Z,23.32
2023-01-13T04:21:39.423Z,28.17
2023-01-13T04:24:44.148Z,23.07
2023-01-13T04:27:49.680Z,23.25
2023-01-13T04:30:54.208Z,20.85
2023-01-13T04:33:53.522Z,21.42
2023-01-13T04:37:00.202Z,19.75
2023-01-13T04:40:05.428Z,29.30
2023-01-13T04:43:11.828Z,18.32
2023-01-13T04:46:17.198Z,19.87
2023-01-13T04:49:22.385Z,19.30
2023-01-13T04:52:27.064Z,22.87
2023-01-13T04:55:33.196Z,22.13
2023-01-13T04:58:38.214Z,23.40
2023-01-13T05:01:46.073Z,20.23
2023-01-13T05:04:51.505Z,20.68
2023-01-13T05:07:59.968Z,17.60
2023-01-13T05:11:06.609Z,23.87
2023-01-13T05:14:30.550Z,21.82
2023-01-13T05:17:38.969Z,19.82
2023-01-13T05:20:44.625Z,26.77
2023-01-13T05:24:04.149Z,21.52
2023-01-13T05:27:10.108Z,18.55
2023-01-13T05:30:15.238Z,19.62
2023-01-13T05:33:22.235Z,20.80
2023-01-13T05:36:26.861Z,25.12
2023-01-13T05:39:31.924Z,37.53
2023-01-13T05:42:55.252Z,19.85
2023-01-13T05:46:01.638Z,22.67
2023-01-13T05:49:09.395Z,24.57
2023-01-13T05:52:14.903Z,24.32
2023-01-13T05:55:22.038Z,23.32
2023-01-13T05:58:29.542Z,27.62
2023-01-13T06:01:36.092Z,28.40
2023-01-13T06:04:46.939Z,31.48
2023-01-13T06:07:55.456Z,30.35
2023-01-13T06:11:01.017Z,30.80
2023-01-13T06:14:09.146Z,35.80
2023-01-13T06:17:14.709Z,31.48
2023-01-13T06:20:22.248Z,28.38
2023-01-13T06:23:28.335Z,30.30
2023-01-13T06:26:36.145Z,28.40
2023-01-13T06:29:42.447Z,30.35
2023-01-13T06:32:53.463Z,29.32
2023-01-13T06:36:05.873Z,24.70
2023-01-13T06:39:13.526Z,26.48
2023-01-13T06:42:39.515Z,24.72
2023-01-13T06:45:46.610Z,25.50
2023-01-13T06:48:52.130Z,30.35
2023-01-13T06:51:56.701Z,28.95
2023-01-13T06:55:02.359Z,27.58
2023-01-13T06:58:10.856Z,36.20
2023-01-13T07:01:16.501Z,35.25
2023-01-13T07:04:22.337Z,35.60
2023-01-13T07:07:30.230Z,37.83
2023-01-13T07:10:43.005Z,26.02
2023-01-13T07:14:08.446Z,26.65
2023-01-13T07:17:17.124Z,26.02
2023-01-13T07:20:25.529Z,34.18
2023-01-13T07:23:31.409Z,34.40
2023-01-13T07:26:37.981Z,32.15
2023-01-13T07:29:44.776Z,26.20
2023-01-13T07:32:49.878Z,28.07
2023-01-13T07:35:54.978Z,45.40
2023-01-13T07:39:00.286Z,30.17
2023-01-13T07:42:24.374Z,26.37
2023-01-13T07:45:29.848Z,30.97
2023-01-13T07:48:37.697Z,34.70
2023-01-13T07:51:48.354Z,28.73
2023-01-13T07:54:57.130Z,34.67
2023-01-13T07:58:05.883Z,36.08
2023-01-13T08:01:12.030Z,37.70
2023-01-13T08:04:19.182Z,34.13
2023-01-13T08:07:26.392Z,32.35
2023-01-13T08:10:34.324Z,38.83
2023-01-13T08:13:44.750Z,36.88
2023-01-13T08:16:52.263Z,32.67
2023-01-13T08:19:56.987Z,29.77
2023-01-13T08:23:04.184Z,29.35
2023-01-13T08:26:09.408Z,30.77
2023-01-13T08:29:16.682Z,29.20
2023-01-13T08:32:22.923Z,37.85
2023-01-13T08:35:30.225Z,37.70
2023-01-13T08:38:35.768Z,37.83
2023-01-13T08:41:59.464Z,48.55
2023-01-13T08:45:05.057Z,37.93
2023-01-13T08:48:12.087Z,32.98
2023-01-13T08:51:20.607Z,49.13
2023-01-13T08:54:26.291Z,35.88
2023-01-13T08:57:31.484Z,47.08
2023-01-13T09:00:36.198Z,33.48
2023-01-13T09:03:42.153Z,50.78
2023-01-13T09:06:48.010Z,30.55
2023-01-13T09:09:57.319Z,27.95
2023-01-13T09:13:23.441Z,29.65
2023-01-13T09:16:29.993Z,32.03
2023-01-13T09:19:36.687Z,33.55
2023-01-13T09:22:45.326Z,36.08
2023-01-13T09:25:51.741Z,32.03
2023-01-13T09:29:01.263Z,30.90
2023-01-13T09:32:06.162Z,37.60
2023-01-13T09:35:11.611Z,38.30
2023-01-13T09:38:17.392Z,32.65
2023-01-13T09:41:51.903Z,43.28
2023-01-13T09:45:14.373Z,41.02
2023-01-13T09:48:24.942Z,41.13
2023-01-13T09:51:36.585Z,32.75
2023-01-13T09:55:10.549Z,34.83
2023-01-13T09:58:19.072Z,37.73
2023-01-13T10:01:43.512Z,32.42
2023-01-13T10:04:49.957Z,38.35
2023-01-13T10:08:08.027Z,40.73
2023-01-13T10:11:51.923Z,37.63
2023-01-13T10:15:09.613Z,29.65
2023-01-13T10:18:33.231Z,42.65
2023-01-13T10:22:07.290Z,40.55
2023-01-13T10:25:37.364Z,42.88
2023-01-13T10:28:42.341Z,42.83
2023-01-13T10:31:49.509Z,40.03
2023-01-13T10:35:06.794Z,55.85
2023-01-13T10:38:12.691Z,34.73
2023-01-13T10:41:34.796Z,42.70
2023-01-13T10:44:41.905Z,59.48
2023-01-13T10:47:50.117Z,63.87
2023-01-13T10:50:56.923Z,46.45
2023-01-13T10:54:20.988Z,42.00
2023-01-13T10:57:39.789Z,37.00
2023-01-13T11:00:48.514Z,34.55
2023-01-13T11:03:58.742Z,35.92
2023-01-13T11:07:05.736Z,46.37
2023-01-13T11:10:26.103Z,41.13
2023-01-13T11:13:41.153Z,40.63
2023-01-13T11:16:53.137Z,42.20
2023-01-13T11:20:00.361Z,36.08
2023-01-13T11:23:17.673Z,40.52
2023-01-13T11:26:33.446Z,36.13
2023-01-13T11:30:14.788Z,45.73
2023-01-13T11:33:31.393Z,34.23
2023-01-13T11:36:42.760Z,34.05
2023-01-13T11:40:12.831Z,39.55
2023-01-13T11:43:52.030Z,27.65
2023-01-13T11:46:58.052Z,29.92
2023-01-13T11:50:04.375Z,31.30
2023-01-13T11:53:26.907Z,41.23
2023-01-13T11:57:04.665Z,35.38
2023-01-13T12:00:36.718Z,26.95
2023-01-13T12:04:06.424Z,35.25
2023-01-13T12:07:38.988Z,37.53
2023-01-13T12:14:54.620Z,32.65
2023-01-13T12:18:37.801Z,29.27
2023-01-13T12:21:55.073Z,28.02
2023-01-13T12:25:07.202Z,27.20
2023-01-13T12:28:24.937Z,30.12
2023-01-13T12:31:31.568Z,32.95
2023-01-13T12:35:01.846Z,35.70
2023-01-13T12:38:38.787Z,30.62
2023-01-13T12:42:13.481Z,26.20
2023-01-13T12:45:30.752Z,31.75
2023-01-13T12:49:09.578Z,25.48
2023-01-13T12:52:25.103Z,14.95
2023-01-13T12:55:33.181Z,21.57
2023-01-13T12:58:43.389Z,16.27
2023-01-13T13:01:50.829Z,14.80
2023-01-13T13:05:05.396Z,16.77
2023-01-13T13:08:48.191Z,21.77
2023-01-13T13:12:05.966Z,15.78
2023-01-13T13:15:15.763Z,20.10
2023-01-13T13:18:38.331Z,16.15
2023-01-13T13:21:47.513Z,21.57
2023-01-13T13:24:55.589Z,21.35
2023-01-13T13:28:06.184Z,19.87
2023-01-13T13:31:23.628Z,24.50
2023-01-13T13:34:56.326Z,31.77
2023-01-13T13:38:29.855Z,23.15
2023-01-13T13:41:56.577Z,26.93
2023-01-13T13:45:21.415Z,27.70
2023-01-13T13:48:45.753Z,19.62
2023-01-13T13:51:57.610Z,24.75
2023-01-13T13:55:09.030Z,21.85
2023-01-13T13:58:13.661Z,20.27
2023-01-13T14:01:20.466Z,26.07
2023-01-13T14:04:36.640Z,22.73
2023-01-13T14:07:42.747Z,25.48
2023-01-13T14:10:52.523Z,25.32
2023-01-13T14:13:58.623Z,29.95
2023-01-13T14:17:05.341Z,25.50
2023-01-13T14:20:19.817Z,26.17
2023-01-13T14:23:35.911Z,23.47
2023-01-13T14:26:45.007Z,36.90
2023-01-13T14:29:53.000Z,29.82
2023-01-13T14:32:59.372Z,28.73
2023-01-13T14:36:30.527Z,26.82
2023-01-13T14:39:40.453Z,30.95
2023-01-13T14:42:49.823Z,27.93
2023-01-13T14:46:15.425Z,25.55
2023-01-13T14:49:21.927Z,26.62
2023-01-13T14:52:39.139Z,30.97
2023-01-13T14:55:50.013Z,23.10
2023-01-13T14:58:56.975Z,32.15
2023-01-13T15:02:03.029Z,34.43
2023-01-13T15:05:08.685Z,31.85
2023-01-13T15:08:27.661Z,32.03
2023-01-13T15:11:41.842Z,25.70
2023-01-13T15:14:47.494Z,35.28
2023-01-13T15:17:59.080Z,22.17
2023-01-13T15:21:06.795Z,29.72
2023-01-13T15:24:12.290Z,28.20
2023-01-13T15:27:22.599Z,29.65
2023-01-13T15:30:39.664Z,28.55
2023-01-13T15:33:47.903Z,30.88
2023-01-13T15:36:53.424Z,32.35
2023-01-13T15:39:59.187Z,32.17
2023-01-13T15:43:24.793Z,31.37
2023-01-13T15:46:48.927Z,29.00
2023-01-13T15:49:58.670Z,31.07
2023-01-13T15:53:04.635Z,31.10
2023-01-13T15:56:11.492Z,31.20
2023-01-13T15:59:18.056Z,30.23
2023-01-13T16:02:26.490Z,31.40
2023-01-13T16:05:48.897Z,37.88
2023-01-13T16:08:55.313Z,32.65
2023-01-13T16:12:01.565Z,32.42
2023-01-13T16:15:08.444Z,26.95
2023-01-13T16:18:15.855Z,28.90
2023-01-13T16:21:28.966Z,34.35
2023-01-13T16:24:35.686Z,36.68
2023-01-13T16:27:41.106Z,27.17
2023-01-13T16:30:49.427Z,27.30
2023-01-13T16:33:56.217Z,20.35
2023-01-13T16:37:01.759Z,27.15
2023-01-13T16:40:07.792Z,37.88
2023-01-13T16:43:14.083Z,35.73
2023-01-13T16:46:43.313Z,32.63
2023-01-13T16:49:49.069Z,30.00
2023-01-13T16:52:55.664Z,28.47
2023-01-13T16:56:01.638Z,24.27
2023-01-13T16:59:10.637Z,25.25
2023-01-13T17:02:19.273Z,18.52
2023-01-13T17:05:29.707Z,24.35
2023-01-13T17:08:36.234Z,26.02
2023-01-13T17:11:41.082Z,26.90
2023-01-13T17:14:46.914Z,26.73
2023-01-13T17:17:54.771Z,28.05
2023-01-13T17:21:00.088Z,22.62
2023-01-13T17:24:05.343Z,30.62
2023-01-13T17:27:10.705Z,36.85
2023-01-13T17:30:15.464Z,22.10
2023-01-13T17:33:23.233Z,21.65
2023-01-13T17:36:28.522Z,37.75
2023-01-13T17:39:39.916Z,27.05
2023-01-13T17:42:46.521Z,23.47
2023-01-13T17:45:55.906Z,23.10
2023-01-13T17:49:01.605Z,26.57
2023-01-13T17:52:06.677Z,30.75
2023-01-13T17:55:14.966Z,32.80
2023-01-13T17:58:16.006Z,27.35
2023-01-13T18:01:29.951Z,27.50
2023-01-13T18:04:38.018Z,27.55
2023-01-13T18:07:45.283Z,31.23
2023-01-13T18:10:52.190Z,31.97
2023-01-13T18:14:01.999Z,33.88
2023-01-13T18:17:06.973Z,28.20
2023-01-13T18:20:29.945Z,34.58
2023-01-13T18:23:54.507Z,28.50
2023-01-13T18:27:19.148Z,25.80
2023-01-13T18:30:27.893Z,23.02
2023-01-13T18:33:33.631Z,33.48
2023-01-13T18:36:41.003Z,29.50
2023-01-13T18:39:46.565Z,21.93
2023-01-13T18:42:58.325Z,25.90
2023-01-13T18:46:07.303Z,30.75
2023-01-13T18:49:14.285Z,24.90
2023-01-13T18:52:20.319Z,28.52
2023-01-13T18:55:26.340Z,21.77
2023-01-13T18:58:35.013Z,19.48
2023-01-13T19:01:44.351Z,22.30
2023-01-13T19:04:51.938Z,21.87
2023-01-13T19:07:59.228Z,23.77
2023-01-13T19:11:08.610Z,23.05
2023-01-13T19:14:14.401Z,22.55
2023-01-13T19:17:24.881Z,28.90
2023-01-13T19:20:32.293Z,21.48
2023-01-13T19:23:37.176Z,37.00
2023-01-13T19:26:43.637Z,29.82
2023-01-13T19:29:51.996Z,24.27
2023-01-13T19:32:58.140Z,26.55
2023-01-13T19:36:03.300Z,21.00
2023-01-13T19:39:08.505Z,27.75
2023-01-13T19:42:36.881Z,26.80
2023-01-13T19:45:43.501Z,19.98
2023-01-13T19:48:52.809Z,23.55
2023-01-13T19:51:59.192Z,21.82
2023-01-13T19:55:06.617Z,25.77
2023-01-13T19:58:14.902Z,24.23
2023-01-13T20:01:23.918Z,29.65
2023-01-13T20:04:34.261Z,24.98
2023-01-13T20:07:42.948Z,23.95
2023-01-13T20:10:52.401Z,20.55
2023-01-13T20:14:00.142Z,18.30
2023-01-13T20:17:07.141Z,20.27
2023-01-13T20:20:14.914Z,25.32
2023-01-13T20:23:21.632Z,28.25
2023-01-13T20:26:27.029Z,22.52
2023-01-13T20:29:33.715Z,21.02
2023-01-13T20:32:42.144Z,24.00
2023-01-13T20:35:47.002Z,20.37
2023-01-13T20:38:52.905Z,24.32
2023-01-13T20:42:12.381Z,26.55
2023-01-13T20:45:14.787Z,27.37
2023-01-13T20:48:22.127Z,20.95
2023-01-13T20:51:28.332Z,24.20
2023-01-13T20:54:35.519Z,31.68
2023-01-13T20:57:43.047Z,28.15
2023-01-13T21:00:50.193Z,23.47
2023-01-13T21:03:57.905Z,20.88
2023-01-13T21:07:03.842Z,24.23
2023-01-13T21:10:10.500Z,25.27
2023-01-13T21:13:34.525Z,22.73
2023-01-13T21:16:42.817Z,24.15
2023-01-13T21:19:48.928Z,21.77
2023-01-13T21:23:00.598Z,22.85
2023-01-13T21:26:06.817Z,22.05
2023-01-13T21:29:14.945Z,25.80
2023-01-13T21:32:21.833Z,27.05
2023-01-13T21:35:28.912Z,20.35
2023-01-13T21:38:35.245Z,27.13
2023-01-13T21:41:59.729Z,23.10
2023-01-13T21:45:24.580Z,23.52
2023-01-13T21:48:32.207Z,22.90
2023-01-13T21:51:39.488Z,24.70
2023-01-13T21:54:49.166Z,28.15
2023-01-13T21:57:51.729Z,30.43
2023-01-13T22:00:58.739Z,22.87
2023-01-13T22:04:19.710Z,26.40
2023-01-13T22:07:26.317Z,24.80
2023-01-13T22:10:37.297Z,23.98
2023-01-13T22:14:01.844Z,27.55
2023-01-13T22:17:10.253Z,27.10
2023-01-13T22:20:15.706Z,22.15
2023-01-13T22:23:22.362Z,21.87
2023-01-13T22:26:28.520Z,25.08
2023-01-13T22:29:36.453Z,28.70
2023-01-13T22:32:44.334Z,29.90
2023-01-13T22:35:52.503Z,27.20
2023-01-13T22:38:58.631Z,25.32
2023-01-13T22:42:06.169Z,28.27
2023-01-13T22:45:12.234Z,36.13
2023-01-13T22:48:18.254Z,29.42
2023-01-13T22:51:30.391Z,28.42
2023-01-13T22:54:36.751Z,23.18
2023-01-13T22:57:48.534Z,28.20
2023-01-13T23:00:55.111Z,33.92
2023-01-13T23:04:02.534Z,26.17
2023-01-13T23:07:09.541Z,23.52
2023-01-13T23:10:16.238Z,31.75
2023-01-13T23:13:23.191Z,22.20
2023-01-13T23:16:32.704Z,24.18
2023-01-13T23:19:39.414Z,29.45
2023-01-13T23:22:47.196Z,18.48
2023-01-13T23:25:54.050Z,29.67
2023-01-13T23:29:00.142Z,26.25
2023-01-13T23:32:07.425Z,32.60
2023-01-13T23:35:14.491Z,33.08
2023-01-13T23:38:23.290Z,26.97
2023-01-13T23:41:33.908Z,25.60
2023-01-13T23:44:40.088Z,20.72
2023-01-13T23:47:45.489Z,31.05
2023-01-13T23:50:51.696Z,25.48
2023-01-13T23:54:00.201Z,34.98
2023-01-13T23:57:06.814Z,21.17
